Time;durP1;ratioP1;P1;durP2;ratioP2;P2;SDS_P1;SDS_P2;PMS_P1;PMS_P2;Temp;Humidity;BMP_temperature;BMP_pressure;BME280_temperature;BME280_humidity;BME280_pressure;Samples;Min_cycle;Max_cycle;Signal;HPM_P1;HPM_P2
2021/05/08 00:00:40;;;;;;;7.18;4.95;;;13.20;96.50;;;;;;5054909;28;20029;-82
2021/05/08 00:03:06;;;;;;;7.93;5.63;;;13.30;96.50;;;;;;5057104;28;20025;-82
2021/05/08 00:05:31;;;;;;;7.22;5.55;;;13.30;96.40;;;;;;5057766;28;20073;-81
2021/05/08 00:07:57;;;;;;;7.13;4.97;;;13.40;96.50;;;;;;5056770;28;20033;-81
2021/05/08 00:10:23;;;;;;;8.20;5.65;;;13.40;96.40;;;;;;5053298;28;20032;-82
2021/05/08 00:12:49;;;;;;;6.78;4.90;;;13.40;96.50;;;;;;5052652;28;20031;-83
2021/05/08 00:15:16;;;;;;;7.95;5.78;;;13.50;96.40;;;;;;5053317;28;20025;-82
2021/05/08 00:17:42;;;;;;;8.10;5.65;;;13.50;96.30;;;;;;5053209;28;20550;-82
2021/05/08 00:20:11;;;;;;;9.40;4.90;;;13.50;96.30;;;;;;5052552;28;20051;-82
2021/05/08 00:22:38;;;;;;;7.55;5.18;;;13.60;96.10;;;;;;5052701;28;20027;-82
2021/05/08 00:25:08;;;;;;;6.47;3.90;;;13.60;95.90;;;;;;5052819;28;20016;-81
2021/05/08 00:27:34;;;;;;;7.20;5.30;;;13.60;95.80;;;;;;5053166;28;20033;-81
2021/05/08 00:30:00;;;;;;;7.13;5.28;;;13.70;95.80;;;;;;5052509;28;20387;-81
2021/05/08 00:32:25;;;;;;;9.90;5.55;;;13.70;96.10;;;;;;5053450;28;20025;-81
2021/05/08 00:34:51;;;;;;;7.28;5.00;;;13.70;96.10;;;;;;5053783;28;20028;-81
2021/05/08 00:37:17;;;;;;;8.32;5.70;;;13.70;96.20;;;;;;5052568;28;20119;-80
2021/05/08 00:39:43;;;;;;;9.60;5.95;;;13.70;96.20;;;;;;5052783;28;20021;-79
2021/05/08 00:42:09;;;;;;;10.02;6.43;;;13.80;96.50;;;;;;5052598;28;20067;-80
2021/05/08 00:44:35;;;;;;;13.25;7.57;;;13.80;96.50;;;;;;5052141;28;20439;-81
2021/05/08 00:47:01;;;;;;;15.43;8.05;;;13.80;96.50;;;;;;5052430;28;20025;-81
2021/05/08 00:49:28;;;;;;;23.40;10.27;;;13.80;96.50;;;;;;5052651;28;20035;-81
2021/05/08 00:51:55;;;;;;;37.40;14.50;;;13.80;96.50;;;;;;5052447;28;20109;-81
2021/05/08 00:54:21;;;;;;;46.90;16.05;;;13.80;96.70;;;;;;5052167;28;20036;-81
2021/05/08 00:56:48;;;;;;;38.28;13.60;;;13.70;97.00;;;;;;5053551;28;20029;-81
2021/05/08 00:59:14;;;;;;;30.77;12.88;;;13.70;97.00;;;;;;5053434;28;20348;-81
2021/05/08 01:01:41;;;;;;;32.78;12.70;;;13.70;97.10;;;;;;5052440;28;20021;-81
2021/05/08 01:04:07;;;;;;;14.32;7.90;;;13.70;97.10;;;;;;5053364;28;20021;-82
2021/05/08 01:06:33;;;;;;;10.63;6.45;;;13.70;97.20;;;;;;5054795;28;20045;-82
2021/05/08 01:09:00;;;;;;;11.25;6.88;;;13.70;97.30;;;;;;5053037;28;20047;-82
2021/05/08 01:11:27;;;;;;;10.23;6.60;;;13.70;97.50;;;;;;5053267;28;20029;-81
2021/05/08 01:13:53;;;;;;;14.65;6.13;;;13.70;97.60;;;;;;5054313;28;20115;-80
2021/05/08 01:16:19;;;;;;;11.07;5.50;;;13.70;97.20;;;;;;5052580;28;20051;-82
2021/05/08 01:18:51;;;;;;;9.63;5.80;;;13.80;97.00;;;;;;5056558;28;20033;-82
2021/05/08 01:21:17;;;;;;;9.10;5.80;;;13.80;97.00;;;;;;5058543;28;20059;-82
2021/05/08 01:23:43;;;;;;;11.18;6.40;;;13.80;96.70;;;;;;5054458;28;20078;-82
2021/05/08 01:26:09;;;;;;;8.90;5.72;;;13.80;96.70;;;;;;5053940;28;20021;-82
2021/05/08 01:28:34;;;;;;;9.57;5.25;;;13.80;96.60;;;;;;5053542;28;20065;-82
2021/05/08 01:31:00;;;;;;;8.68;5.45;;;13.80;97.00;;;;;;5052556;28;20494;-79
2021/05/08 01:33:25;;;;;;;9.18;5.20;;;13.80;96.80;;;;;;5053042;28;20481;-80
2021/05/08 01:35:54;;;;;;;9.10;5.45;;;13.80;96.70;;;;;;5058021;28;20379;-79
2021/05/08 01:38:20;;;;;;;8.65;5.40;;;13.80;96.40;;;;;;5059882;28;20033;-79
2021/05/08 01:40:46;;;;;;;8.80;5.00;;;13.80;96.40;;;;;;5058455;28;20027;-79
2021/05/08 01:43:11;;;;;;;10.02;6.40;;;13.90;96.50;;;;;;5067132;28;20028;-79
2021/05/08 01:45:38;;;;;;;8.75;5.85;;;13.90;95.90;;;;;;5077376;28;20047;-79
2021/05/08 01:48:06;;;;;;;9.95;5.63;;;13.90;96.10;;;;;;5076053;28;20029;-82
2021/05/08 01:50:32;;;;;;;10.45;6.35;;;13.90;95.90;;;;;;5070938;28;20085;-80
2021/05/08 01:52:58;;;;;;;8.68;5.93;;;13.90;96.10;;;;;;5068793;28;20108;-80
2021/05/08 01:55:26;;;;;;;8.73;6.43;;;13.90;96.10;;;;;;5058719;28;20029;-79
2021/05/08 01:57:57;;;;;;;7.40;5.53;;;13.90;96.10;;;;;;5060035;28;20103;-79
2021/05/08 02:00:31;;;;;;;10.38;5.65;;;13.90;96.30;;;;;;5060841;28;20476;-79
2021/05/08 02:02:57;;;;;;;9.57;5.53;;;13.90;96.20;;;;;;5060619;28;20035;-80
2021/05/08 02:05:26;;;;;;;9.25;4.50;;;13.90;96.10;;;;;;5056196;28;20123;-80
2021/05/08 02:07:52;;;;;;;10.43;5.57;;;13.90;96.10;;;;;;5057348;28;20115;-80
2021/05/08 02:10:18;;;;;;;8.77;5.43;;;13.90;96.00;;;;;;5056509;28;20432;-80
2021/05/08 02:12:44;;;;;;;12.02;6.10;;;13.90;95.80;;;;;;5056503;28;20037;-80
2021/05/08 02:15:16;;;;;;;8.57;5.30;;;13.90;95.60;;;;;;5056277;28;20021;-80
2021/05/08 02:17:42;;;;;;;10.38;6.90;;;13.90;95.60;;;;;;5058357;28;20074;-80
2021/05/08 02:20:14;;;;;;;11.20;4.32;;;13.80;95.60;;;;;;5055774;28;20028;-81
2021/05/08 02:22:41;;;;;;;11.00;7.00;;;13.80;95.80;;;;;;5055112;28;20074;-83
2021/05/08 02:25:09;;;;;;;13.38;6.60;;;13.80;95.90;;;;;;5055144;28;20029;-81
2021/05/08 02:27:35;;;;;;;10.27;5.97;;;13.80;95.90;;;;;;5055099;28;20029;-80
2021/05/08 02:30:03;;;;;;;11.75;6.15;;;13.80;96.10;;;;;;5056345;28;20025;-80
2021/05/08 02:32:29;;;;;;;11.23;6.75;;;13.80;95.90;;;;;;5055755;28;20032;-80
2021/05/08 02:34:55;;;;;;;14.43;6.38;;;13.70;95.90;;;;;;5056207;28;20033;-82
2021/05/08 02:37:21;;;;;;;12.20;6.88;;;13.70;96.10;;;;;;5056672;28;20028;-82
2021/05/08 02:39:46;;;;;;;10.38;6.55;;;13.70;96.10;;;;;;5057891;28;20025;-79
2021/05/08 02:42:12;;;;;;;10.70;7.22;;;13.70;96.20;;;;;;5055881;28;20513;-80
2021/05/08 02:44:38;;;;;;;13.02;6.95;;;13.70;96.50;;;;;;5057054;28;20090;-82
2021/05/08 02:47:03;;;;;;;14.52;7.68;;;13.60;96.60;;;;;;5055702;28;20104;-82
2021/05/08 02:49:29;;;;;;;12.77;7.97;;;13.60;96.80;;;;;;5055184;28;20386;-80
2021/05/08 02:51:55;;;;;;;15.93;7.95;;;13.60;97.10;;;;;;5055612;28;20024;-80
2021/05/08 02:54:20;;;;;;;15.80;8.55;;;13.70;97.20;;;;;;5055961;28;20033;-79
2021/05/08 02:56:46;;;;;;;15.60;7.70;;;13.60;97.30;;;;;;5054825;28;20032;-79
2021/05/08 02:59:12;;;;;;;13.30;7.80;;;13.60;97.20;;;;;;5054885;28;20029;-80
2021/05/08 03:01:37;;;;;;;17.40;7.80;;;13.70;97.30;;;;;;5055243;28;20112;-79
2021/05/08 03:04:03;;;;;;;12.95;7.95;;;13.70;97.20;;;;;;5055801;28;20032;-80
2021/05/08 03:06:29;;;;;;;11.57;7.68;;;13.70;97.40;;;;;;5054417;28;20129;-79
2021/05/08 03:08:55;;;;;;;12.93;7.13;;;13.70;97.30;;;;;;5056046;28;20124;-82
2021/05/08 03:11:20;;;;;;;14.52;7.35;;;13.70;97.20;;;;;;5056090;28;20033;-81
2021/05/08 03:13:46;;;;;;;10.55;7.00;;;13.70;97.10;;;;;;5054625;28;20039;-82
2021/05/08 03:16:12;;;;;;;11.98;6.53;;;13.70;96.80;;;;;;5054072;28;20021;-80
2021/05/08 03:18:37;;;;;;;12.05;7.00;;;13.70;96.90;;;;;;5056073;28;20060;-82
2021/05/08 03:21:03;;;;;;;10.20;7.05;;;13.70;96.80;;;;;;5055191;28;20391;-79
2021/05/08 03:23:29;;;;;;;10.35;6.65;;;13.70;96.90;;;;;;5059013;28;20576;-80
2021/05/08 03:25:54;;;;;;;11.50;6.85;;;13.70;97.00;;;;;;5057968;28;20021;-80
2021/05/08 03:28:20;;;;;;;10.68;6.95;;;13.70;97.10;;;;;;5057588;28;20467;-79
2021/05/08 03:30:46;;;;;;;12.25;7.82;;;13.70;97.00;;;;;;5057391;28;20064;-81
2021/05/08 03:33:11;;;;;;;10.32;7.63;;;13.70;97.10;;;;;;5055608;28;20074;-81
2021/05/08 03:35:37;;;;;;;9.68;6.80;;;13.70;97.10;;;;;;5057651;28;20028;-81
2021/05/08 03:38:03;;;;;;;11.88;7.32;;;13.80;97.20;;;;;;5071244;28;20029;-82
2021/05/08 03:40:28;;;;;;;14.18;7.55;;;13.80;97.20;;;;;;5059362;28;20528;-80
2021/05/08 03:42:54;;;;;;;13.43;7.40;;;13.80;97.10;;;;;;5056967;28;20391;-80
2021/05/08 03:45:20;;;;;;;15.30;7.95;;;13.80;97.00;;;;;;5056453;28;20387;-82
2021/05/08 03:47:45;;;;;;;13.95;8.35;;;13.80;96.90;;;;;;5063736;28;20057;-83
2021/05/08 03:50:11;;;;;;;16.58;9.65;;;13.80;96.90;;;;;;5061114;28;20027;-80
2021/05/08 03:52:37;;;;;;;18.08;10.60;;;13.80;97.00;;;;;;5060959;28;20005;-82
2021/05/08 03:55:03;;;;;;;17.65;9.60;;;13.80;97.10;;;;;;5070337;28;20436;-81
2021/05/08 03:57:29;;;;;;;16.10;9.73;;;13.80;97.00;;;;;;5055563;28;20029;-82
2021/05/08 03:59:57;;;;;;;12.63;9.20;;;13.80;96.80;;;;;;5055340;28;20017;-82
2021/05/08 04:02:22;;;;;;;13.90;9.02;;;13.80;96.90;;;;;;5053628;28;20025;-83
2021/05/08 04:04:48;;;;;;;15.60;9.07;;;13.80;96.90;;;;;;5054762;28;20096;-81
2021/05/08 04:07:14;;;;;;;13.35;8.52;;;13.80;96.90;;;;;;5053100;28;20045;-82
2021/05/08 04:09:40;;;;;;;13.77;8.48;;;13.70;96.90;;;;;;5053198;28;20028;-82
2021/05/08 04:12:06;;;;;;;13.18;7.93;;;13.70;96.80;;;;;;5054929;28;20037;-83
2021/05/08 04:14:32;;;;;;;14.10;8.93;;;13.70;96.80;;;;;;5054248;28;20029;-82
2021/05/08 04:16:57;;;;;;;13.25;8.82;;;13.70;96.80;;;;;;5053357;28;20170;-82
2021/05/08 04:19:23;;;;;;;22.88;10.60;;;13.70;97.00;;;;;;5054338;28;20046;-83
2021/05/08 04:21:49;;;;;;;43.20;15.73;;;13.60;97.10;;;;;;5052711;28;20405;-82
2021/05/08 04:24:14;;;;;;;66.43;19.90;;;13.60;97.20;;;;;;5054109;28;20406;-82
2021/05/08 04:26:40;;;;;;;59.40;19.23;;;13.60;97.10;;;;;;5053729;28;20029;-83
2021/05/08 04:29:06;;;;;;;38.83;14.30;;;13.50;97.00;;;;;;5052927;28;20036;-83
2021/05/08 04:31:33;;;;;;;22.70;11.02;;;13.40;97.00;;;;;;5052672;28;20035;-82
2021/05/08 04:33:59;;;;;;;22.65;11.45;;;13.40;97.20;;;;;;5053680;28;20018;-82
2021/05/08 04:36:24;;;;;;;21.15;10.57;;;13.30;97.40;;;;;;5052385;28;20033;-86
2021/05/08 04:38:50;;;;;;;24.27;12.30;;;13.20;97.60;;;;;;5052464;28;20031;-82
2021/05/08 04:41:16;;;;;;;20.73;11.88;;;13.10;97.70;;;;;;5053122;28;20025;-82
2021/05/08 04:43:41;;;;;;;19.08;11.73;;;13.10;97.90;;;;;;5052756;28;20021;-83
2021/05/08 04:46:07;;;;;;;19.98;11.00;;;13.00;98.20;;;;;;5053739;28;20021;-83
2021/05/08 04:48:34;;;;;;;22.85;13.18;;;13.00;98.40;;;;;;5052591;28;20405;-82
2021/05/08 04:51:00;;;;;;;27.88;15.25;;;12.90;98.70;;;;;;5052371;28;20025;-83
2021/05/08 04:53:26;;;;;;;38.22;16.25;;;13.00;99.30;;;;;;5053643;28;20511;-82
2021/05/08 04:55:52;;;;;;;59.65;21.48;;;13.00;99.70;;;;;;5052298;28;20021;-83
2021/05/08 04:58:19;;;;;;;73.88;23.38;;;13.00;99.70;;;;;;5052574;28;20033;-83
2021/05/08 05:00:45;;;;;;;41.17;18.25;;;13.00;99.70;;;;;;5051984;28;20029;-83
2021/05/08 05:03:10;;;;;;;38.42;18.95;;;13.00;99.60;;;;;;5053722;28;20021;-84
2021/05/08 05:05:36;;;;;;;33.53;16.52;;;12.90;99.40;;;;;;5052046;28;20432;-83
2021/05/08 05:08:02;;;;;;;38.63;18.50;;;12.80;99.60;;;;;;5052316;28;20116;-83
2021/05/08 05:10:28;;;;;;;37.08;17.90;;;12.80;99.80;;;;;;5051616;28;20487;-84
2021/05/08 05:12:55;;;;;;;36.65;19.60;;;12.80;99.90;;;;;;5052539;28;20093;-83
2021/05/08 05:15:21;;;;;;;39.08;20.02;;;12.80;99.90;;;;;;5054331;28;20439;-83
2021/05/08 05:17:47;;;;;;;37.83;19.52;;;12.80;99.90;;;;;;5053217;28;20064;-85
2021/05/08 05:20:14;;;;;;;33.42;18.30;;;12.80;99.90;;;;;;5053219;28;20052;-84
2021/05/08 05:22:39;;;;;;;25.80;15.95;;;12.90;99.90;;;;;;5053755;28;20035;-83
2021/05/08 05:25:06;;;;;;;23.52;16.10;;;12.90;99.90;;;;;;5040357;28;20013;-82
2021/05/08 05:27:33;;;;;;;28.33;17.55;;;13.00;99.90;;;;;;5055299;28;20033;-83
2021/05/08 05:30:00;;;;;;;24.17;14.60;;;13.00;99.90;;;;;;5051791;28;20028;-84
2021/05/08 05:32:26;;;;;;;31.98;22.20;;;13.00;99.90;;;;;;5054035;28;20435;-84
2021/05/08 05:34:52;;;;;;;48.20;33.40;;;13.10;99.90;;;;;;5058464;28;20032;-83
2021/05/08 05:37:17;;;;;;;46.15;33.25;;;13.10;99.90;;;;;;5054351;28;20025;-84
2021/05/08 05:39:43;;;;;;;39.63;27.70;;;13.10;99.90;;;;;;5053390;28;20025;-84
2021/05/08 05:42:09;;;;;;;28.90;22.95;;;13.20;99.90;;;;;;5069371;28;20085;-84
2021/05/08 05:44:35;;;;;;;26.98;19.13;;;13.10;99.90;;;;;;5075689;28;20080;-85
2021/05/08 05:47:00;;;;;;;27.00;16.17;;;13.10;99.90;;;;;;5072642;28;20033;-85
2021/05/08 05:49:26;;;;;;;18.77;12.85;;;13.10;99.90;;;;;;5072265;28;20053;-84
2021/05/08 05:51:52;;;;;;;17.63;12.88;;;13.10;99.90;;;;;;5068895;28;20025;-85
2021/05/08 05:54:18;;;;;;;17.23;11.43;;;13.10;99.90;;;;;;5055361;28;20022;-85
2021/05/08 05:56:44;;;;;;;21.52;11.82;;;13.20;99.90;;;;;;5056196;28;20550;-83
2021/05/08 05:59:10;;;;;;;21.50;12.73;;;13.20;99.90;;;;;;5055009;28;20391;-84
2021/05/08 06:01:35;;;;;;;21.52;11.27;;;13.20;99.90;;;;;;5056990;28;20028;-85
2021/05/08 06:04:02;;;;;;;14.77;10.02;;;13.20;99.90;;;;;;5055172;28;20029;-84
2021/05/08 06:06:28;;;;;;;17.15;10.13;;;13.20;99.90;;;;;;5053166;28;20514;-83
2021/05/08 06:08:54;;;;;;;16.05;9.85;;;13.30;99.90;;;;;;5052476;28;20029;-83
2021/05/08 06:11:19;;;;;;;16.63;11.18;;;13.30;99.90;;;;;;5053081;28;20120;-83
2021/05/08 06:13:45;;;;;;;15.48;10.55;;;13.40;99.90;;;;;;5051504;28;20029;-83
2021/05/08 06:16:11;;;;;;;18.33;10.30;;;13.40;99.90;;;;;;5051349;28;20078;-82
2021/05/08 06:18:36;;;;;;;15.13;9.57;;;13.40;99.90;;;;;;5051554;28;20364;-83
2021/05/08 06:21:03;;;;;;;14.88;9.82;;;13.50;99.90;;;;;;5051935;28;20028;-82
2021/05/08 06:23:30;;;;;;;12.77;9.20;;;13.50;99.90;;;;;;5055138;28;20113;-82
2021/05/08 06:25:56;;;;;;;12.52;8.02;;;13.50;99.90;;;;;;5055795;28;20151;-85
2021/05/08 06:28:22;;;;;;;12.60;8.70;;;13.60;99.90;;;;;;5055893;28;20510;-82
2021/05/08 06:30:47;;;;;;;10.27;7.72;;;13.70;99.90;;;;;;5057126;28;20471;-83
2021/05/08 06:33:13;;;;;;;14.05;8.05;;;13.70;99.90;;;;;;5055179;28;20021;-83
2021/05/08 06:35:39;;;;;;;13.10;8.32;;;13.80;99.90;;;;;;5054899;28;20031;-83
2021/05/08 06:38:06;;;;;;;9.68;7.93;;;13.90;99.90;;;;;;5056458;28;20033;-83
2021/05/08 06:40:32;;;;;;;11.90;7.38;;;13.90;99.90;;;;;;5054625;28;20464;-83
2021/05/08 06:42:58;;;;;;;10.75;7.95;;;14.10;99.90;;;;;;5055075;28;20017;-84
2021/05/08 06:45:23;;;;;;;10.90;7.00;;;14.10;99.90;;;;;;5054426;28;20032;-84
2021/05/08 06:47:56;;;;;;;12.55;7.88;;;14.10;99.90;;;;;;5054621;28;20029;-82
2021/05/08 06:50:21;;;;;;;9.50;7.10;;;14.20;99.90;;;;;;5056017;28;20379;-85
2021/05/08 06:52:47;;;;;;;12.18;8.25;;;14.20;99.90;;;;;;5054578;28;20029;-83
2021/05/08 06:55:13;;;;;;;9.55;7.20;;;14.20;99.90;;;;;;5054770;28;20055;-83
2021/05/08 06:57:38;;;;;;;8.85;6.93;;;14.20;99.90;;;;;;5054551;28;20021;-84
2021/05/08 07:00:05;;;;;;;10.98;7.38;;;14.10;99.90;;;;;;5054647;28;20383;-84
2021/05/08 07:02:31;;;;;;;8.77;6.50;;;14.00;99.90;;;;;;5054577;28;20486;-84
2021/05/08 07:04:56;;;;;;;9.25;6.68;;;14.00;99.90;;;;;;5054708;28;20029;-84
2021/05/08 07:07:22;;;;;;;9.00;7.00;;;14.00;99.90;;;;;;5054063;28;20132;-86
2021/05/08 07:09:48;;;;;;;10.18;7.57;;;14.10;99.90;;;;;;5054490;28;20125;-84
2021/05/08 07:12:13;;;;;;;10.85;8.07;;;14.10;99.90;;;;;;5054402;28;20029;-85
2021/05/08 07:14:40;;;;;;;10.93;8.43;;;14.10;99.90;;;;;;5053759;28;20029;-84
2021/05/08 07:17:06;;;;;;;12.35;9.07;;;14.10;99.90;;;;;;5054303;28;20025;-85
2021/05/08 07:19:32;;;;;;;13.25;9.60;;;14.10;99.90;;;;;;5053985;28;20124;-84
2021/05/08 07:22:00;;;;;;;12.43;9.45;;;14.10;99.90;;;;;;5055469;28;20028;-84
2021/05/08 07:24:26;;;;;;;14.07;10.85;;;14.10;99.90;;;;;;5053633;28;20167;-84
2021/05/08 07:26:52;;;;;;;14.68;11.25;;;14.10;99.90;;;;;;5055339;28;20479;-85
2021/05/08 07:29:19;;;;;;;11.68;8.40;;;14.10;99.90;;;;;;5053498;28;20036;-84
2021/05/08 07:31:45;;;;;;;11.63;7.55;;;14.10;99.90;;;;;;5053722;28;20483;-85
2021/05/08 07:34:10;;;;;;;10.63;6.95;;;14.10;99.90;;;;;;5054508;28;20025;-85
2021/05/08 07:36:36;;;;;;;8.35;6.45;;;14.10;99.90;;;;;;5053575;28;20391;-84
2021/05/08 07:39:02;;;;;;;7.90;6.00;;;14.10;99.90;;;;;;5053785;28;20450;-84
2021/05/08 07:41:28;;;;;;;8.93;6.40;;;14.10;99.90;;;;;;5053869;28;20032;-84
2021/05/08 07:43:53;;;;;;;11.25;7.50;;;14.10;99.90;;;;;;5053427;28;20020;-84
2021/05/08 07:46:19;;;;;;;10.65;7.72;;;14.20;99.90;;;;;;5053529;28;20032;-85
2021/05/08 07:48:45;;;;;;;9.73;7.38;;;14.10;99.90;;;;;;5053465;28;20090;-84
2021/05/08 07:51:11;;;;;;;9.52;7.13;;;14.10;99.90;;;;;;5055586;28;20029;-83
2021/05/08 07:53:37;;;;;;;12.38;8.18;;;14.10;99.90;;;;;;5054229;28;20086;-84
2021/05/08 07:56:03;;;;;;;12.45;7.63;;;14.10;99.70;;;;;;5053860;28;20464;-84
2021/05/08 07:58:28;;;;;;;10.38;7.65;;;14.10;99.80;;;;;;5057642;28;20039;-84
2021/05/08 08:00:54;;;;;;;11.55;7.30;;;14.10;99.80;;;;;;5060711;28;20025;-84
2021/05/08 08:03:20;;;;;;;9.57;7.03;;;14.10;99.70;;;;;;5059052;28;20025;-84
2021/05/08 08:05:45;;;;;;;10.07;7.10;;;14.00;99.90;;;;;;5063914;28;20025;-84
2021/05/08 08:08:11;;;;;;;11.50;8.45;;;14.00;99.90;;;;;;5060937;28;20056;-84
2021/05/08 08:10:37;;;;;;;12.50;8.73;;;14.00;99.80;;;;;;5061936;28;20162;-84
2021/05/08 08:13:03;;;;;;;11.80;8.55;;;14.00;99.90;;;;;;5055833;28;20029;-85
2021/05/08 08:15:30;;;;;;;13.05;10.05;;;14.00;99.90;;;;;;5054266;28;20422;-84
2021/05/08 08:17:56;;;;;;;12.27;9.10;;;14.00;99.90;;;;;;5054253;28;20025;-84
2021/05/08 08:20:22;;;;;;;12.88;8.77;;;14.10;99.90;;;;;;5053217;28;20032;-84
2021/05/08 08:22:48;;;;;;;13.98;7.43;;;14.10;99.90;;;;;;5052635;28;20039;-86
2021/05/08 08:25:14;;;;;;;12.82;8.10;;;14.20;99.90;;;;;;5052768;28;20409;-85
2021/05/08 08:27:41;;;;;;;10.82;7.75;;;14.30;99.90;;;;;;5054238;28;20086;-85
2021/05/08 08:30:11;;;;;;;9.93;8.02;;;14.40;99.90;;;;;;5054148;28;20032;-85
2021/05/08 08:32:37;;;;;;;11.95;8.00;;;14.60;99.90;;;;;;5054247;28;20032;-85
2021/05/08 08:35:03;;;;;;;9.88;8.02;;;14.80;99.90;;;;;;5052588;28;20025;-89
2021/05/08 08:37:29;;;;;;;11.00;8.10;;;15.00;99.90;;;;;;5052543;28;20434;-85
2021/05/08 08:39:55;;;;;;;12.00;8.48;;;15.30;99.90;;;;;;5053806;28;20029;-85
2021/05/08 08:42:21;;;;;;;10.27;8.07;;;15.50;99.90;;;;;;5053485;28;20448;-85
2021/05/08 08:44:47;;;;;;;10.77;8.13;;;15.70;99.90;;;;;;5051652;28;20371;-85
2021/05/08 08:47:31;;;;;;;12.02;7.80;;;15.70;99.40;;;;;;5052150;28;20059;-86
2021/05/08 08:50:00;;;;;;;10.13;8.80;;;15.70;98.40;;;;;;5052450;28;20041;-85
2021/05/08 08:52:26;;;;;;;11.25;8.90;;;15.70;98.40;;;;;;5052014;28;20025;-86
2021/05/08 08:54:53;;;;;;;9.75;8.00;;;15.80;99.10;;;;;;5052717;28;20025;-86
2021/05/08 08:57:25;;;;;;;9.05;8.05;;;16.10;99.50;;;;;;5052482;28;20029;-85
2021/05/08 08:59:52;;;;;;;12.00;8.02;;;16.40;99.60;;;;;;5052609;28;20074;-85
2021/05/08 09:02:19;;;;;;;12.23;8.10;;;16.70;99.20;;;;;;5053604;28;20021;-86
2021/05/08 09:04:45;;;;;;;10.77;7.78;;;17.10;99.20;;;;;;5052128;28;20120;-85
2021/05/08 09:07:12;;;;;;;9.50;8.23;;;17.50;97.90;;;;;;5051689;28;20473;-86
2021/05/08 09:09:38;;;;;;;9.65;7.80;;;17.70;96.60;;;;;;5053138;28;20029;-86
2021/05/08 09:12:11;;;;;;;10.18;8.55;;;18.00;95.90;;;;;;5052324;28;20383;-85
2021/05/08 09:14:36;;;;;;;8.30;7.05;;;18.20;95.40;;;;;;5051703;28;20078;-86
2021/05/08 09:17:11;;;;;;;9.52;7.70;;;18.40;93.40;;;;;;5052156;28;20021;-83
2021/05/08 09:19:42;;;;;;;8.93;7.40;;;18.20;91.50;;;;;;5052839;28;20025;-84
2021/05/08 09:22:36;;;;;;;7.53;6.28;;;17.90;90.20;;;;;;5052111;28;20021;-84
2021/05/08 09:25:07;;;;;;;7.82;6.20;;;17.40;89.00;;;;;;5051721;28;20111;-83
2021/05/08 09:27:41;;;;;;;7.97;6.80;;;16.90;89.10;;;;;;5053396;28;20029;-85
2021/05/08 09:30:14;;;;;;;7.03;6.05;;;16.50;90.20;;;;;;5052938;28;20025;-86
2021/05/08 09:32:44;;;;;;;6.70;5.53;;;16.20;90.80;;;;;;5051651;28;20104;-85
2021/05/08 09:35:16;;;;;;;6.68;5.40;;;16.00;91.20;;;;;;5053524;28;20028;-85
2021/05/08 09:37:42;;;;;;;7.97;6.28;;;15.90;91.40;;;;;;5051843;28;20033;-85
2021/05/08 09:40:16;;;;;;;8.82;5.90;;;15.80;91.70;;;;;;5053222;28;20017;-85
2021/05/08 09:42:46;;;;;;;7.38;6.20;;;15.70;91.80;;;;;;5038716;28;20021;-84
2021/05/08 09:45:15;;;;;;;6.72;5.25;;;15.60;92.00;;;;;;5053139;28;20035;-85
2021/05/08 09:47:42;;;;;;;6.18;5.10;;;15.80;92.90;;;;;;5052629;28;20383;-85
2021/05/08 09:50:08;;;;;;;5.25;4.05;;;16.20;94.80;;;;;;5051837;28;20044;-86
2021/05/08 09:52:41;;;;;;;4.95;3.13;;;16.90;93.80;;;;;;5052254;28;20495;-86
2021/05/08 09:55:07;;;;;;;4.85;3.53;;;17.80;94.60;;;;;;5052617;28;20025;-86
2021/05/08 09:57:32;;;;;;;4.78;3.33;;;18.60;91.30;;;;;;5056208;28;20044;-86
2021/05/08 09:59:58;;;;;;;5.13;3.40;;;18.70;85.70;;;;;;5056781;28;20021;-86
2021/05/08 10:02:24;;;;;;;5.13;3.50;;;18.50;82.40;;;;;;5065977;28;20060;-88
2021/05/08 10:04:55;;;;;;;6.28;3.55;;;18.10;81.10;;;;;;5069309;28;20379;-85
2021/05/08 10:07:22;;;;;;;6.03;4.55;;;17.70;78.80;;;;;;5068831;28;20554;-86
2021/05/08 10:09:50;;;;;;;6.60;4.35;;;17.20;78.30;;;;;;5054077;28;20391;-84
2021/05/08 10:12:17;;;;;;;7.10;5.30;;;16.60;78.30;;;;;;5058320;28;20108;-84
2021/05/08 10:14:48;;;;;;;9.18;5.70;;;16.10;78.60;;;;;;5055022;28;20182;-84
2021/05/08 10:17:16;;;;;;;8.48;5.50;;;15.60;79.70;;;;;;5055240;28;20021;-85
2021/05/08 10:19:45;;;;;;;7.07;5.13;;;15.30;80.70;;;;;;5055382;28;20017;-85
2021/05/08 10:22:12;;;;;;;7.50;5.18;;;15.10;81.30;;;;;;5055076;28;20112;-85
2021/05/08 10:24:41;;;;;;;7.82;5.75;;;14.90;82.20;;;;;;5055322;28;20025;-85
2021/05/08 10:27:07;;;;;;;7.82;5.32;;;14.80;83.10;;;;;;5055172;28;20060;-85
2021/05/08 10:29:37;;;;;;;7.28;5.10;;;14.90;85.20;;;;;;5056107;28;20383;-85
2021/05/08 10:32:09;;;;;;;7.00;5.35;;;15.10;85.10;;;;;;5054780;28;20031;-85
2021/05/08 10:34:49;;;;;;;11.70;5.57;;;15.30;84.20;;;;;;5056109;28;20075;-86
2021/05/08 10:37:15;;;;;;;7.78;5.68;;;15.30;82.80;;;;;;5055339;28;20035;-85
2021/05/08 10:40:13;;;;;;;7.00;5.18;;;15.40;82.80;;;;;;5055240;28;20021;-85
2021/05/08 10:42:39;;;;;;;8.70;5.50;;;15.30;81.50;;;;;;5041553;28;20021;-84
2021/05/08 10:45:26;;;;;;;6.80;4.93;;;15.20;81.50;;;;;;5054629;28;20028;-85
2021/05/08 10:50:41;;;;;;;7.10;4.22;;;15.00;81.30;;;;;;5057318;28;20041;-85
2021/05/08 10:53:11;;;;;;;5.53;3.97;;;14.90;81.20;;;;;;5055975;28;20466;-84
2021/05/08 10:55:57;;;;;;;4.80;3.50;;;14.90;80.80;;;;;;5054725;28;20096;-84
2021/05/08 10:58:22;;;;;;;3.97;3.05;;;14.80;80.70;;;;;;5056122;28;20025;-84
2021/05/08 11:00:49;;;;;;;5.07;3.40;;;14.70;80.20;;;;;;5054089;28;20029;-84
2021/05/08 11:03:16;;;;;;;5.28;3.30;;;14.60;80.40;;;;;;5056058;28;20024;-84
2021/05/08 11:06:03;;;;;;;4.95;2.60;;;14.50;80.30;;;;;;5053928;28;20356;-85
2021/05/08 11:08:29;;;;;;;3.83;2.63;;;14.50;79.40;;;;;;5054818;28;20368;-84
2021/05/08 11:10:55;;;;;;;3.78;2.90;;;14.40;79.40;;;;;;5054129;28;20036;-84
2021/05/08 11:13:21;;;;;;;3.35;2.35;;;14.30;79.10;;;;;;5055473;28;20025;-84
2021/05/08 11:15:56;;;;;;;4.10;2.30;;;14.20;78.00;;;;;;5055478;28;20048;-84
2021/05/08 11:21:00;;;;;;;4.43;2.35;;;13.90;77.30;;;;;;5055348;28;20037;-84
2021/05/08 11:23:39;;;;;;;3.45;2.30;;;13.90;78.00;;;;;;5040777;28;20500;-84
2021/05/08 11:26:28;;;;;;;3.92;2.45;;;14.00;78.70;;;;;;5054044;28;20048;-85
2021/05/08 11:29:23;;;;;;;4.03;2.22;;;14.10;78.70;;;;;;5053863;28;20032;-84
2021/05/08 11:31:54;;;;;;;4.70;2.22;;;14.40;79.00;;;;;;5051644;28;20033;-84
2021/05/08 11:34:21;;;;;;;3.67;2.20;;;14.70;78.40;;;;;;5054245;28;20021;-84
2021/05/08 11:36:51;;;;;;;3.47;2.53;;;14.90;77.20;;;;;;5055426;28;20029;-85
2021/05/08 11:39:27;;;;;;;3.50;2.47;;;15.10;77.00;;;;;;5054473;28;20123;-84
2021/05/08 11:41:58;;;;;;;3.20;2.03;;;15.30;76.50;;;;;;5053895;28;20047;-85
2021/05/08 11:44:33;;;;;;;3.88;2.10;;;15.50;75.70;;;;;;5054809;28;20055;-88
2021/05/08 11:47:04;;;;;;;4.03;1.80;;;15.60;74.00;;;;;;5059267;28;20379;-85
2021/05/08 11:49:36;;;;;;;3.22;1.98;;;15.50;73.40;;;;;;5065151;28;20040;-85
2021/05/08 11:52:07;;;;;;;4.57;2.67;;;15.40;72.50;;;;;;5060645;28;20018;-84
2021/05/08 11:54:43;;;;;;;3.53;1.90;;;15.30;72.20;;;;;;5059644;28;20025;-84
2021/05/08 11:57:22;;;;;;;3.30;2.30;;;15.10;72.30;;;;;;5062760;28;20028;-83
2021/05/08 11:59:48;;;;;;;2.97;2.08;;;15.10;72.80;;;;;;5052405;28;20025;-83
2021/05/08 12:02:18;;;;;;;3.90;2.08;;;15.00;71.70;;;;;;5058013;28;20463;-84
2021/05/08 12:04:50;;;;;;;4.68;2.45;;;14.90;71.20;;;;;;5042006;28;20025;-84
2021/05/08 12:07:27;;;;;;;5.63;3.35;;;14.70;71.60;;;;;;5053470;28;20075;-84
2021/05/08 12:10:15;;;;;;;3.40;2.40;;;14.70;71.60;;;;;;5040071;28;20036;-83
2021/05/08 12:12:59;;;;;;;4.57;2.90;;;14.50;70.70;;;;;;5056664;28;20054;-84
2021/05/08 12:15:33;;;;;;;5.60;2.75;;;14.40;71.40;;;;;;5063556;28;20174;-83
2021/05/08 12:18:07;;;;;;;5.88;3.45;;;14.20;71.90;;;;;;5054232;28;20111;-83
2021/05/08 12:20:36;;;;;;;9.57;4.47;;;14.30;72.50;;;;;;5052640;28;20070;-84
2021/05/08 12:23:09;;;;;;;7.60;3.60;;;14.70;73.30;;;;;;5052773;28;20122;-84
2021/05/08 12:25:35;;;;;;;17.48;9.93;;;15.20;72.50;;;;;;5054731;28;20021;-84
2021/05/08 12:28:21;;;;;;;5.32;2.42;;;15.60;71.10;;;;;;5053184;28;20028;-84
2021/05/08 12:30:51;;;;;;;3.53;2.00;;;15.80;69.80;;;;;;5052605;28;20029;-83
2021/05/08 12:33:27;;;;;;;2.85;1.90;;;15.90;69.00;;;;;;5052304;28;20124;-85
2021/05/08 12:35:54;;;;;;;3.28;1.90;;;16.10;68.90;;;;;;5038265;28;20098;-84
2021/05/08 12:38:29;;;;;;;2.30;1.75;;;16.20;68.00;;;;;;5052900;28;20383;-84
2021/05/08 12:40:55;;;;;;;3.13;1.90;;;16.30;67.40;;;;;;5039214;28;20067;-83
2021/05/08 12:43:29;;;;;;;3.67;1.50;;;16.30;67.00;;;;;;5052693;28;20479;-83
2021/05/08 12:46:04;;;;;;;4.35;1.63;;;16.20;66.40;;;;;;5053526;28;20108;-84